Meteo Giornale » Osservazioni meteo Svizzera » Bern-Belp

ore: 23:20 - Osservazioni Meteo Bern-Belp
Lat. 46° 55' N Lon. 7° 30' E Alt. 505 metri s.l.m.

sereno

14 °C

Sereno

Temp. 24 Ore

10 °C

25 °C

Est/Sud-Est

9.3 Km/h

Dew point 12 °C

Umidità 87 %

Visibilità  10 Km

Il sole sorge alle ore 06:49

Il sole tramonta alle ore 20:10

Data e Ora Cielo e Fenomeni T °C DP °C Um. % Pres. hPa Vis. km Vento km/h
Oggi h: 23:20 sereno Sereno 14 12 87 1022 10 E/SE 9.3
Oggi h: 22:50 sereno Sereno 14 12 87 1022 10 N 3.7
Oggi h: 22:20 sereno Sereno 15 12 82 1022 10 N 0
Oggi h: 21:50 sereno Sereno 15 13 87 1022 10 N 1.8
Oggi h: 21:20 sereno Sereno 16 12 77 1021 10 N 0
Oggi h: 20:50 sereno Sereno 17 13 77 1021 10 N 0
Oggi h: 20:20 sereno Sereno 19 13 68 1021 10 N 3.7
Oggi h: 19:50 sereno Sereno 21 13 60 1021 10 N 3.7
Oggi h: 19:20 sereno Sereno 22 12 53 1021 10 N 5.5
Oggi h: 18:50 sereno Sereno 25 7 31 1021 10 N 5.5
Oggi h: 18:20 sereno Sereno 25 8 33 1021 10 O 9.3
Oggi h: 17:50 sereno Sereno 24 8 35 1021 10 O 7.4
Oggi h: 17:20 sereno Sereno 25 10 38 1021 10 NO 9.3
Oggi h: 16:50 poco_nuvoloso Poco Nuvoloso 24 9 38 1021 10 N 3.7
Oggi h: 16:20 sereno Sereno 25 10 38 1021 10 N 3.7
Oggi h: 15:50 sereno Sereno 24 9 38 1021 10 N 3.7
Oggi h: 15:20 sereno Sereno 24 9 38 1021 10 N 5.5
Oggi h: 14:50 sereno Sereno 23 8 38 1022 10 N/NO 9.3
Oggi h: 14:20 sereno Sereno 24 10 41 1022 10 O/SO 7.4
Oggi h: 13:50 poco_nuvoloso Poco Nuvoloso 23 11 46 1022 10 N 5.5
Oggi h: 13:20 poco_nuvoloso Poco Nuvoloso 23 10 43 1022 10 N 3.7
Oggi h: 12:50 poco_nuvoloso Poco Nuvoloso 22 10 46 1022 10 O 7.4
Oggi h: 12:20 poco_nuvoloso Poco Nuvoloso 22 11 49 1023 10 N 3.7
Oggi h: 11:50 poco_nuvoloso Poco Nuvoloso 21 11 52 1023 10 N 5.5
Oggi h: 11:20 poco_nuvoloso Poco Nuvoloso 20 11 56 1023 10 N 3.7
Oggi h: 10:50 poco_nuvoloso Poco Nuvoloso 19 11 59 1023 10 N 1.8
Oggi h: 10:20 sereno Sereno 18 10 59 1023 10 N 5.5
Oggi h: 09:50 sereno Sereno 17 11 67 1023 10 E/SE 9.3
Oggi h: 09:20 sereno Sereno 17 11 67 1023 10 E/SE 7.4
Oggi h: 08:50 sereno Sereno 15 11 76 1023 10 E 11.1
Oggi h: 08:20 sereno Sereno 14 11 82 1023 10 N 3.7
Oggi h: 07:50 sereno Sereno 11 10 93 1023 10 N 0
Oggi h: 07:20 sereno Sereno 10 9 93 1023 10 N 0
Oggi h: 06:50 sereno Sereno 10 9 93 1023 10 N 1.8
Oggi h: 06:20 sereno Sereno 10 9 93 1023 10 N 0
Oggi h: 05:50 sereno Sereno 10 9 93 1023 10 N 0
Oggi h: 05:20 sereno Sereno 10 10 100 1023 10 N 1.8
Oggi h: 04:50 sereno Sereno 10 9 93 1023 10 N 1.8
Oggi h: 04:20 sereno Sereno 11 10 93 1023 10 N 1.8
Oggi h: 03:50 sereno Sereno 11 10 93 1023 10 N 3.7
Oggi h: 03:20 sereno Sereno 12 10 87 1023 10 N 1.8
Oggi h: 02:50 sereno Sereno 12 10 87 1023 10 N 1.8
Oggi h: 02:20 sereno Sereno 12 10 87 1023 10 N 5.5
Oggi h: 01:50 sereno Sereno 12 10 87 1022 10 N 3.7
Oggi h: 01:20 sereno Sereno 12 10 87 1022 10 N 1.8
Oggi h: 00:50 sereno Sereno 13 10 81 1022 10 N 3.7
Oggi h: 00:20 sereno Sereno 14 10 76 1023 10 N 1.8
Ieri h: 23:50 sereno Sereno 14 10 76 1023 10 N 5.5